Time;durP1;ratioP1;P1;durP2;ratioP2;P2;SDS_P1;SDS_P2;PMS_P1;PMS_P2;Temp;Humidity;BMP_temperature;BMP_pressure;BME280_temperature;BME280_humidity;BME280_pressure;Samples;Min_cycle;Max_cycle;Signal;HPM_P1;HPM_P2
2021/05/24 00:02:18;;;;;;;;;;;8.70;87.80;;;;;;4931787;28;20350;-68
2021/05/24 00:04:44;;;;;;;;;;;8.70;87.40;;;;;;4921901;28;19962;-67
2021/05/24 00:07:09;;;;;;;;;;;8.70;87.50;;;;;;4931828;28;19927;-67
2021/05/24 00:09:35;;;;;;;;;;;8.70;87.30;;;;;;4933516;28;20022;-68
2021/05/24 00:12:02;;;;;;;;;;;8.80;86.90;;;;;;4922011;28;19938;-67
2021/05/24 00:14:29;;;;;;;;;;;8.80;86.90;;;;;;4931393;28;20001;-69
2021/05/24 00:16:55;;;;;;;;;;;8.80;86.60;;;;;;4931326;28;19953;-67
2021/05/24 00:19:20;;;;;;;;;;;8.80;86.70;;;;;;4921319;28;20404;-67
2021/05/24 00:21:46;;;;;;;;;;;8.80;86.50;;;;;;4925145;28;19919;-68
2021/05/24 00:24:11;;;;;;;;;;;8.80;86.40;;;;;;4920757;28;20016;-69
2021/05/24 00:26:37;;;;;;;;;;;8.80;86.10;;;;;;4926581;28;19977;-67
2021/05/24 00:29:02;;;;;;;;;;;8.80;85.80;;;;;;4923155;28;19927;-68
2021/05/24 00:31:28;;;;;;;;;;;8.90;85.70;;;;;;4936029;28;20124;-66
2021/05/24 00:33:53;;;;;;;;;;;8.80;85.70;;;;;;4923656;28;19914;-68
2021/05/24 00:36:19;;;;;;;;;;;8.80;86.00;;;;;;4928219;28;19933;-66
2021/05/24 00:38:45;;;;;;;;;;;8.80;85.80;;;;;;4928142;28;20065;-69
2021/05/24 00:41:10;;;;;;;;;;;8.80;85.40;;;;;;4928254;28;19976;-67
2021/05/24 00:43:36;;;;;;;;;;;8.80;85.50;;;;;;4923327;28;19921;-67
2021/05/24 00:46:01;;;;;;;;;;;8.70;85.60;;;;;;4926403;28;20780;-67
2021/05/24 00:48:27;;;;;;;;;;;8.70;85.40;;;;;;4933583;28;19915;-66
2021/05/24 00:50:52;;;;;;;;;;;8.70;85.30;;;;;;4926028;28;20321;-66
2021/05/24 00:53:18;;;;;;;;;;;8.70;84.90;;;;;;4937894;28;20013;-68
2021/05/24 00:55:43;;;;;;;;;;;8.70;85.10;;;;;;4924220;28;19986;-66
2021/05/24 00:58:09;;;;;;;;;;;8.70;85.10;;;;;;4925523;28;20398;-67
2021/05/24 01:00:36;;;;;;;;;;;8.70;85.10;;;;;;4921143;28;20691;-67
2021/05/24 01:03:02;;;;;;;;;;;8.80;84.90;;;;;;4921580;28;19915;-66
2021/05/24 01:05:28;;;;;;;;;;;8.80;84.60;;;;;;4922560;28;19985;-66
2021/05/24 01:07:54;;;;;;;;;;;8.80;84.50;;;;;;4924195;29;19915;-67
2021/05/24 01:10:19;;;;;;;;;;;8.70;84.70;;;;;;4920874;29;19922;-66
2021/05/24 01:12:45;;;;;;;;;;;8.70;84.50;;;;;;4923326;28;20125;-68
2021/05/24 01:15:11;;;;;;;;;;;8.60;84.70;;;;;;4919338;28;19941;-66
2021/05/24 01:17:36;;;;;;;;;;;8.60;84.60;;;;;;4941657;28;19938;-66
2021/05/24 01:20:03;;;;;;;;;;;8.60;84.50;;;;;;4922032;28;19930;-67
2021/05/24 01:22:32;;;;;;;;;;;8.50;84.80;;;;;;4911629;29;19981;-66
2021/05/24 01:24:57;;;;;;;;;;;8.50;84.10;;;;;;4932024;28;20346;-68
2021/05/24 01:27:23;;;;;;;;;;;8.60;83.70;;;;;;4918471;29;19965;-66
2021/05/24 01:29:48;;;;;;;;;;;8.60;83.50;;;;;;4923033;28;19921;-68
2021/05/24 01:32:14;;;;;;;;;;;8.60;83.80;;;;;;4924964;28;19953;-66
2021/05/24 01:34:40;;;;;;;;;;;8.60;83.20;;;;;;4919544;28;19967;-67
2021/05/24 01:37:06;;;;;;;;;;;8.70;83.10;;;;;;4923692;28;20010;-66
2021/05/24 01:39:31;;;;;;;;;;;8.70;82.90;;;;;;4918752;28;20406;-66
2021/05/24 01:41:57;;;;;;;;;;;8.70;82.50;;;;;;4923430;28;20354;-68
2021/05/24 01:44:27;;;;;;;;;;;8.70;82.80;;;;;;4925982;28;20054;-66
2021/05/24 01:46:52;;;;;;;;;;;8.80;82.20;;;;;;4923421;28;19962;-66
2021/05/24 01:49:18;;;;;;;;;;;8.80;82.20;;;;;;4919998;29;19965;-67
2021/05/24 01:51:43;;;;;;;;;;;8.80;82.00;;;;;;4919261;28;19926;-69
2021/05/24 01:54:09;;;;;;;;;;;8.80;82.10;;;;;;4919131;28;19915;-67
2021/05/24 01:56:34;;;;;;;;;;;8.80;81.80;;;;;;4945011;28;19963;-66
2021/05/24 01:59:02;;;;;;;;;;;8.80;82.20;;;;;;4922329;28;20475;-67
2021/05/24 02:01:27;;;;;;;;;;;8.80;81.90;;;;;;4921443;28;20026;-65
2021/05/24 02:03:53;;;;;;;;;;;8.80;81.70;;;;;;4921633;28;20069;-67
2021/05/24 02:06:18;;;;;;;;;;;8.90;81.50;;;;;;4934273;28;20025;-66
2021/05/24 02:08:44;;;;;;;;;;;8.90;81.40;;;;;;4921629;28;19926;-67
2021/05/24 02:11:09;;;;;;;;;;;8.90;81.00;;;;;;4927111;28;20055;-67
2021/05/24 02:13:35;;;;;;;;;;;8.90;81.20;;;;;;4925341;28;19923;-66
2021/05/24 02:16:00;;;;;;;;;;;8.90;81.20;;;;;;4925219;28;19918;-66
2021/05/24 02:18:26;;;;;;;;;;;8.90;81.10;;;;;;4923326;28;19982;-68
2021/05/24 02:20:51;;;;;;;;;;;9.00;80.60;;;;;;4924146;29;19930;-66
2021/05/24 02:23:17;;;;;;;;;;;8.90;81.00;;;;;;4924140;28;19919;-68
2021/05/24 02:25:42;;;;;;;;;;;8.90;80.80;;;;;;4925529;28;19914;-67
2021/05/24 02:28:08;;;;;;;;;;;8.90;80.80;;;;;;4926322;28;19938;-67
2021/05/24 02:30:34;;;;;;;;;;;8.90;81.00;;;;;;4923038;28;20005;-67
2021/05/24 02:33:00;;;;;;;;;;;8.90;81.30;;;;;;4922639;28;19926;-67
2021/05/24 02:35:26;;;;;;;;;;;8.90;81.20;;;;;;4921655;28;20272;-67
2021/05/24 02:37:52;;;;;;;;;;;8.90;80.90;;;;;;4934017;28;19963;-66
2021/05/24 02:40:19;;;;;;;;;;;8.90;81.10;;;;;;4923033;29;19950;-67
2021/05/24 02:42:44;;;;;;;;;;;8.90;80.80;;;;;;4923883;28;19919;-65
2021/05/24 02:45:11;;;;;;;;;;;8.90;80.80;;;;;;4924351;28;20334;-66
2021/05/24 02:47:37;;;;;;;;;;;8.80;81.10;;;;;;4921214;28;20271;-68
2021/05/24 02:50:04;;;;;;;;;;;8.90;81.00;;;;;;4923370;28;19930;-66
2021/05/24 02:52:29;;;;;;;;;;;8.80;81.10;;;;;;4926539;28;19937;-67
2021/05/24 02:54:55;;;;;;;;;;;8.80;81.10;;;;;;4921815;29;19919;-66
2021/05/24 02:57:20;;;;;;;;;;;8.80;80.80;;;;;;4929434;28;19933;-67
2021/05/24 02:59:46;;;;;;;;;;;8.80;80.90;;;;;;4922007;29;19934;-66
2021/05/24 03:02:14;;;;;;;;;;;8.70;81.10;;;;;;4925078;29;19923;-66
2021/05/24 03:04:39;;;;;;;;;;;8.70;81.40;;;;;;4922269;28;19992;-68
2021/05/24 03:07:06;;;;;;;;;;;8.70;81.60;;;;;;4923097;28;19919;-66
2021/05/24 03:09:32;;;;;;;;;;;8.70;81.50;;;;;;4921691;28;19959;-66
2021/05/24 03:11:57;;;;;;;;;;;8.70;81.70;;;;;;4916904;28;19926;-66
2021/05/24 03:14:23;;;;;;;;;;;8.60;81.60;;;;;;4918950;29;20259;-69
2021/05/24 03:16:48;;;;;;;;;;;8.60;81.70;;;;;;4927234;28;20342;-66
2021/05/24 03:19:14;;;;;;;;;;;8.60;82.20;;;;;;4917978;28;20085;-67
2021/05/24 03:21:39;;;;;;;;;;;8.60;82.30;;;;;;4913677;29;19919;-68
2021/05/24 03:24:06;;;;;;;;;;;8.50;82.60;;;;;;4914707;29;19915;-66
2021/05/24 03:26:31;;;;;;;;;;;8.50;82.50;;;;;;4925845;28;20123;-67
2021/05/24 03:28:57;;;;;;;;;;;8.50;82.80;;;;;;4923843;28;20127;-67
2021/05/24 03:31:22;;;;;;;;;;;8.50;82.90;;;;;;4919809;28;19930;-67
2021/05/24 03:33:48;;;;;;;;;;;8.50;82.80;;;;;;4915823;28;19915;-67
2021/05/24 03:36:13;;;;;;;;;;;8.50;83.20;;;;;;4925494;29;20284;-65
2021/05/24 03:38:39;;;;;;;;;;;8.50;82.70;;;;;;4918158;28;19926;-66
2021/05/24 03:41:05;;;;;;;;;;;8.50;82.90;;;;;;4923247;28;20006;-68
2021/05/24 03:43:31;;;;;;;;;;;8.50;83.10;;;;;;4924187;28;19925;-67
2021/05/24 03:45:57;;;;;;;;;;;8.50;83.10;;;;;;4924826;28;19922;-68
2021/05/24 03:48:23;;;;;;;;;;;8.50;83.20;;;;;;4922581;28;19919;-66
2021/05/24 03:50:48;;;;;;;;;;;8.50;83.00;;;;;;4921547;28;20412;-67
2021/05/24 03:53:14;;;;;;;;;;;8.50;83.10;;;;;;4925425;28;19915;-67
2021/05/24 03:55:39;;;;;;;;;;;8.40;83.50;;;;;;4924424;29;20108;-67
2021/05/24 03:58:05;;;;;;;;;;;8.40;83.70;;;;;;4923465;28;20417;-67
2021/05/24 04:00:31;;;;;;;;;;;8.40;83.80;;;;;;4923043;28;19915;-68
2021/05/24 04:02:56;;;;;;;;;;;8.30;83.80;;;;;;4924921;28;20343;-67
2021/05/24 04:05:30;;;;;;;;;;;8.40;83.90;;;;;;4918891;28;19922;-67
2021/05/24 04:07:57;;;;;;;;;;;8.30;84.20;;;;;;4924218;28;19915;-66
2021/05/24 04:10:25;;;;;;;;;;;8.30;84.40;;;;;;4920060;28;19918;-68
2021/05/24 04:12:51;;;;;;;;;;;8.30;84.40;;;;;;4910301;29;19923;-68
2021/05/24 04:15:17;;;;;;;;;;;8.30;84.00;;;;;;4921632;29;19926;-66
2021/05/24 04:17:43;;;;;;;;;;;8.40;84.00;;;;;;4922970;28;19919;-66
2021/05/24 04:20:11;;;;;;;;;;;8.30;83.90;;;;;;4916983;28;19996;-68
2021/05/24 04:22:37;;;;;;;;;;;8.40;83.70;;;;;;4932961;29;19919;-67
2021/05/24 04:25:03;;;;;;;;;;;8.40;83.70;;;;;;4916158;29;19915;-67
2021/05/24 04:27:28;;;;;;;;;;;8.40;83.70;;;;;;4917081;28;19923;-67
2021/05/24 04:29:54;;;;;;;;;;;8.50;83.70;;;;;;4917294;28;19990;-67
2021/05/24 04:32:19;;;;;;;;;;;8.50;83.50;;;;;;4922470;28;20484;-67
2021/05/24 04:34:45;;;;;;;;;;;8.60;83.20;;;;;;4916859;29;19937;-67
2021/05/24 04:37:10;;;;;;;;;;;8.60;83.30;;;;;;4919991;28;20025;-69
2021/05/24 04:39:36;;;;;;;;;;;8.70;83.30;;;;;;4921333;28;19999;-67
2021/05/24 04:42:05;;;;;;;;;;;8.90;82.90;;;;;;4919576;28;20252;-67
2021/05/24 04:44:31;;;;;;;;;;;9.10;81.60;;;;;;4918882;29;19919;-67
2021/05/24 04:46:56;;;;;;;;;;;9.30;81.90;;;;;;4921329;28;20048;-67
2021/05/24 04:49:22;;;;;;;;;;;9.50;81.40;;;;;;4922817;28;19922;-67
2021/05/24 04:51:47;;;;;;;;;;;9.60;80.80;;;;;;4923202;28;20001;-68
2021/05/24 04:54:13;;;;;;;;;;;9.70;80.50;;;;;;4918388;29;20043;-67
2021/05/24 04:56:38;;;;;;;;;;;9.80;79.90;;;;;;4918491;28;19931;-68
2021/05/24 04:59:04;;;;;;;;;;;10.00;79.90;;;;;;4925102;29;20386;-68
2021/05/24 05:01:29;;;;;;;;;;;10.10;79.80;;;;;;4937509;28;19994;-67
2021/05/24 05:03:55;;;;;;;;;;;10.10;79.10;;;;;;4928453;28;19911;-67
2021/05/24 05:06:20;;;;;;;;;;;10.10;79.40;;;;;;4920379;29;20394;-68
2021/05/24 05:08:46;;;;;;;;;;;10.20;78.90;;;;;;4922823;28;19923;-67
2021/05/24 05:11:15;;;;;;;;;;;10.30;79.00;;;;;;4920602;28;19931;-67
2021/05/24 05:13:43;;;;;;;;;;;10.30;78.60;;;;;;4917935;28;19919;-67
2021/05/24 05:16:10;;;;;;;;;;;10.30;78.20;;;;;;4919883;28;19919;-69
2021/05/24 05:18:35;;;;;;;;;;;10.30;78.50;;;;;;4923017;28;19923;-68
2021/05/24 05:21:01;;;;;;;;;;;10.30;78.60;;;;;;4923315;28;19923;-67
2021/05/24 05:23:26;;;;;;;;;;;10.20;78.30;;;;;;4922054;28;20326;-66
2021/05/24 05:25:52;;;;;;;;;;;10.20;78.90;;;;;;4920563;29;19925;-68
2021/05/24 05:28:19;;;;;;;;;;;10.10;79.40;;;;;;4921894;28;19922;-67
2021/05/24 05:30:45;;;;;;;;;;;10.30;78.80;;;;;;4917202;28;19923;-67
2021/05/24 05:33:10;;;;;;;;;;;10.40;78.60;;;;;;4922966;28;19915;-69
2021/05/24 05:35:36;;;;;;;;;;;10.60;78.50;;;;;;4927330;28;19922;-67
2021/05/24 05:38:02;;;;;;;;;;;10.80;77.30;;;;;;4922561;28;20307;-68
2021/05/24 05:40:30;;;;;;;;;;;11.00;77.40;;;;;;4919775;28;20360;-67
2021/05/24 05:42:55;;;;;;;;;;;11.00;76.20;;;;;;4921421;28;20359;-67
2021/05/24 05:45:21;;;;;;;;;;;11.10;76.50;;;;;;4921387;28;19926;-68
2021/05/24 05:47:46;;;;;;;;;;;11.20;77.00;;;;;;4923453;28;20101;-67
2021/05/24 05:50:12;;;;;;;;;;;11.30;76.30;;;;;;4922474;28;19923;-68
2021/05/24 05:52:38;;;;;;;;;;;11.50;76.20;;;;;;4922775;28;20015;-67
2021/05/24 05:55:04;;;;;;;;;;;11.50;75.20;;;;;;4920102;29;20002;-69
2021/05/24 05:57:30;;;;;;;;;;;11.60;74.90;;;;;;4920989;28;19928;-67
2021/05/24 05:59:55;;;;;;;;;;;11.70;74.90;;;;;;4917644;28;19926;-67
2021/05/24 06:02:21;;;;;;;;;;;11.80;75.30;;;;;;4921120;29;20130;-69
2021/05/24 06:04:46;;;;;;;;;;;12.00;74.10;;;;;;4922569;28;19955;-68
2021/05/24 06:07:12;;;;;;;;;;;12.10;74.10;;;;;;4921825;29;19920;-67
2021/05/24 06:09:37;;;;;;;;;;;12.10;74.00;;;;;;4920181;28;20379;-67
2021/05/24 06:12:03;;;;;;;;;;;12.20;72.50;;;;;;4923083;28;20475;-67
2021/05/24 06:14:29;;;;;;;;;;;12.30;72.80;;;;;;4920444;29;19961;-69
2021/05/24 06:16:54;;;;;;;;;;;12.40;72.90;;;;;;4915750;29;20409;-69
2021/05/24 06:19:20;;;;;;;;;;;12.60;72.70;;;;;;4927856;28;19936;-67
2021/05/24 06:21:45;;;;;;;;;;;12.70;72.30;;;;;;4918917;28;19980;-67
2021/05/24 06:24:11;;;;;;;;;;;12.90;71.10;;;;;;4918850;28;19992;-68
2021/05/24 06:26:37;;;;;;;;;;;13.10;72.10;;;;;;4917856;29;20334;-68
2021/05/24 06:29:02;;;;;;;;;;;13.30;70.80;;;;;;4922269;29;19989;-68
2021/05/24 06:31:28;;;;;;;;;;;13.50;69.20;;;;;;4916685;28;19956;-69
2021/05/24 06:33:53;;;;;;;;;;;13.50;69.20;;;;;;4920569;29;19918;-68
2021/05/24 06:36:19;;;;;;;;;;;13.70;70.10;;;;;;4914143;29;19974;-68
2021/05/24 06:38:44;;;;;;;;;;;13.90;68.30;;;;;;4921335;28;19915;-67
2021/05/24 06:41:10;;;;;;;;;;;13.80;68.50;;;;;;4920436;28;20067;-68
2021/05/24 06:43:35;;;;;;;;;;;14.00;68.90;;;;;;4923839;28;19992;-68
2021/05/24 06:46:01;;;;;;;;;;;14.00;68.10;;;;;;4916409;29;19927;-69
2021/05/24 06:48:26;;;;;;;;;;;14.40;68.00;;;;;;4920753;28;19915;-66
2021/05/24 06:50:52;;;;;;;;;;;14.40;66.20;;;;;;4918837;28;19922;-67
2021/05/24 06:53:17;;;;;;;;;;;14.80;66.50;;;;;;4920947;29;19922;-68
2021/05/24 06:55:43;;;;;;;;;;;14.80;64.70;;;;;;4920379;28;19930;-67
2021/05/24 06:58:08;;;;;;;;;;;15.00;64.50;;;;;;4924377;28;20621;-68
2021/05/24 07:00:34;;;;;;;;;;;14.90;64.00;;;;;;4919615;29;20009;-68
2021/05/24 07:02:59;;;;;;;;;;;15.50;64.10;;;;;;4925462;29;20448;-67
2021/05/24 07:05:25;;;;;;;;;;;15.20;65.20;;;;;;4920336;28;19938;-69
2021/05/24 07:07:50;;;;;;;;;;;15.00;63.60;;;;;;4921561;28;20404;-68
2021/05/24 07:10:16;;;;;;;;;;;14.70;65.10;;;;;;4920636;29;19988;-67
2021/05/24 07:12:41;;;;;;;;;;;15.00;65.30;;;;;;4924363;28;20302;-68
2021/05/24 07:15:07;;;;;;;;;;;15.10;63.90;;;;;;4921323;28;20017;-68
2021/05/24 07:17:33;;;;;;;;;;;15.70;63.40;;;;;;4937496;29;20104;-68
2021/05/24 07:19:58;;;;;;;;;;;16.10;63.50;;;;;;4922543;28;19969;-67
2021/05/24 07:22:24;;;;;;;;;;;15.90;61.30;;;;;;4920362;28;19915;-69
2021/05/24 07:24:51;;;;;;;;;;;16.00;61.80;;;;;;4920133;28;19931;-68
2021/05/24 07:27:17;;;;;;;;;;;15.80;62.30;;;;;;4919638;29;19930;-68
2021/05/24 07:29:42;;;;;;;;;;;16.10;62.50;;;;;;4920165;28;19942;-68
2021/05/24 07:32:10;;;;;;;;;;;16.20;62.10;;;;;;4922318;29;19958;-68
2021/05/24 07:34:39;;;;;;;;;;;16.50;61.50;;;;;;4923873;28;19914;-68
2021/05/24 07:37:05;;;;;;;;;;;16.70;60.00;;;;;;4920199;28;19923;-67
2021/05/24 07:39:31;;;;;;;;;;;17.00;59.60;;;;;;4923279;28;20002;-68
2021/05/24 07:42:00;;;;;;;;;;;17.30;60.70;;;;;;4919409;29;20013;-68
2021/05/24 07:44:26;;;;;;;;;;;17.20;59.50;;;;;;4921943;29;19914;-68
2021/05/24 07:46:51;;;;;;;;;;;17.60;58.30;;;;;;4919086;29;19918;-68
2021/05/24 07:49:20;;;;;;;;;;;17.60;55.90;;;;;;4924905;28;19925;-69
2021/05/24 07:51:45;;;;;;;;;;;17.60;56.50;;;;;;4920051;28;20005;-68
2021/05/24 07:54:11;;;;;;;;;;;17.60;56.30;;;;;;4921747;28;20419;-68
2021/05/24 07:56:36;;;;;;;;;;;17.90;57.40;;;;;;4916656;28;20049;-68
2021/05/24 07:59:02;;;;;;;;;;;18.10;54.90;;;;;;4922428;29;19971;-69
2021/05/24 08:01:27;;;;;;;;;;;17.60;54.00;;;;;;4923017;29;19987;-68
2021/05/24 08:03:53;;;;;;;;;;;17.20;57.30;;;;;;4923727;28;20605;-69
2021/05/24 08:06:18;;;;;;;;;;;17.50;57.40;;;;;;4911663;28;19995;-69
2021/05/24 08:08:44;;;;;;;;;;;17.60;56.00;;;;;;4916284;28;19941;-69
2021/05/24 08:11:12;;;;;;;;;;;17.60;56.30;;;;;;4920279;29;20252;-70
2021/05/24 08:13:37;;;;;;;;;;;17.20;57.00;;;;;;4920799;29;20355;-69
2021/05/24 08:16:03;;;;;;;;;;;16.70;58.20;;;;;;4913586;28;20005;-69
2021/05/24 08:18:28;;;;;;;;;;;16.40;59.20;;;;;;4922150;28;19919;-69
2021/05/24 08:20:54;;;;;;;;;;;16.70;58.60;;;;;;4912829;28;20145;-69
2021/05/24 08:23:19;;;;;;;;;;;16.90;59.80;;;;;;4910945;29;21876;-68
2021/05/24 08:25:45;;;;;;;;;;;16.70;58.60;;;;;;4920767;29;19918;-70
2021/05/24 08:28:10;;;;;;;;;;;17.00;58.60;;;;;;4910070;29;20026;-69
2021/05/24 08:30:36;;;;;;;;;;;17.00;58.50;;;;;;4913753;28;20285;-69
2021/05/24 08:33:01;;;;;;;;;;;17.00;57.30;;;;;;4925066;28;20243;-69
2021/05/24 08:35:27;;;;;;;;;;;17.70;56.70;;;;;;4912200;28;19968;-69
2021/05/24 08:37:52;;;;;;;;;;;17.90;56.80;;;;;;4921025;28;19941;-69
2021/05/24 08:40:18;;;;;;;;;;;18.00;54.70;;;;;;4920905;28;20401;-70
2021/05/24 08:42:45;;;;;;;;;;;18.00;54.10;;;;;;4915927;29;20371;-71
2021/05/24 08:45:11;;;;;;;;;;;18.50;55.10;;;;;;4919111;28;20378;-69
2021/05/24 08:47:37;;;;;;;;;;;18.40;55.20;;;;;;4919727;28;19976;-69
2021/05/24 08:50:03;;;;;;;;;;;18.20;54.10;;;;;;4925565;29;19911;-69
2021/05/24 08:52:29;;;;;;;;;;;17.60;55.10;;;;;;4917456;29;19941;-69
2021/05/24 08:54:55;;;;;;;;;;;17.60;56.40;;;;;;4919404;29;20331;-70
2021/05/24 08:57:20;;;;;;;;;;;17.70;56.50;;;;;;4920338;28;19922;-69
2021/05/24 08:59:46;;;;;;;;;;;17.60;54.90;;;;;;4920764;29;20033;-69
2021/05/24 09:02:12;;;;;;;;;;;17.90;55.80;;;;;;4914246;29;19922;-69
2021/05/24 09:04:48;;;;;;;;;;;18.10;54.50;;;;;;4923475;29;20138;-69
2021/05/24 09:07:15;;;;;;;;;;;18.00;53.30;;;;;;4924635;28;19922;-69
2021/05/24 09:09:57;;;;;;;;;;;18.00;55.00;;;;;;4921885;29;20213;-69
2021/05/24 09:12:22;;;;;;;;;;;18.00;52.50;;;;;;4914775;29;20247;-70
2021/05/24 09:14:54;;;;;;;;;;;18.50;53.70;;;;;;4904906;29;19911;-69
2021/05/24 09:17:19;;;;;;;;;;;19.00;50.90;;;;;;4927969;29;19930;-69
2021/05/24 09:19:45;;;;;;;;;;;19.00;49.60;;;;;;4922627;28;19911;-69
2021/05/24 09:22:10;;;;;;;;;;;19.70;48.80;;;;;;4920476;28;20299;-70
2021/05/24 09:24:39;;;;;;;;;;;20.00;50.40;;;;;;4922034;29;19981;-71
2021/05/24 09:27:05;;;;;;;;;;;20.00;46.50;;;;;;4918865;29;20343;-70
2021/05/24 09:29:44;;;;;;;;;;;19.70;49.20;;;;;;4922663;28;19923;-69
2021/05/24 09:32:13;;;;;;;;;;;19.30;50.90;;;;;;4923571;29;20026;-69
2021/05/24 09:34:39;;;;;;;;;;;19.50;47.30;;;;;;4929895;28;19922;-69
2021/05/24 09:37:04;;;;;;;;;;;19.40;50.50;;;;;;4938716;28;20000;-70
2021/05/24 09:39:31;;;;;;;;;;;19.60;46.60;;;;;;4952897;28;19931;-71
2021/05/24 09:42:00;;;;;;;;;;;19.80;48.00;;;;;;4921585;29;20543;-69
2021/05/24 09:44:27;;;;;;;;;;;19.90;45.70;;;;;;4923780;28;19958;-69
2021/05/24 09:46:52;;;;;;;;;;;19.80;45.10;;;;;;4928661;29;19993;-70
2021/05/24 09:49:22;;;;;;;;;;;20.30;45.60;;;;;;4932696;28;19953;-69
2021/05/24 09:51:47;;;;;;;;;;;20.40;44.70;;;;;;4918141;29;19923;-69
2021/05/24 09:54:13;;;;;;;;;;;20.10;42.90;;;;;;4924414;28;20006;-70
2021/05/24 09:56:48;;;;;;;;;;;19.70;44.30;;;;;;4914815;28;19922;-70
2021/05/24 09:59:13;;;;;;;;;;;19.80;46.00;;;;;;4916797;28;19967;-70
2021/05/24 10:01:42;;;;;;;;;;;20.20;44.10;;;;;;4917355;29;20024;-70
2021/05/24 10:04:08;;;;;;;;;;;19.90;45.20;;;;;;4915256;28;19922;-70
2021/05/24 10:06:34;;;;;;;;;;;20.10;44.20;;;;;;4920126;28;19923;-69
2021/05/24 10:08:59;;;;;;;;;;;20.60;44.20;;;;;;4921307;28;19996;-70
2021/05/24 10:11:25;;;;;;;;;;;19.70;43.10;;;;;;4919248;29;20018;-70
2021/05/24 10:13:51;;;;;;;;;;;20.00;43.90;;;;;;4922705;29;19972;-70
2021/05/24 10:16:17;;;;;;;;;;;20.90;41.80;;;;;;4925240;29;20236;-69
2021/05/24 10:18:43;;;;;;;;;;;21.10;43.30;;;;;;4922805;29;19918;-69
2021/05/24 10:21:09;;;;;;;;;;;20.60;42.30;;;;;;4919568;29;19925;-70
2021/05/24 10:23:35;;;;;;;;;;;20.10;42.50;;;;;;4920639;28;19987;-69
2021/05/24 10:26:02;;;;;;;;;;;20.90;43.30;;;;;;4916215;28;19971;-70
2021/05/24 10:28:28;;;;;;;;;;;20.70;40.10;;;;;;4914989;29;20438;-70
2021/05/24 10:30:55;;;;;;;;;;;20.20;40.40;;;;;;4921712;29;19919;-70
2021/05/24 10:33:26;;;;;;;;;;;20.50;39.20;;;;;;4924931;29;20347;-69
2021/05/24 10:35:51;;;;;;;;;;;20.30;40.50;;;;;;4921331;29;19938;-69
2021/05/24 10:38:20;;;;;;;;;;;20.20;40.80;;;;;;4921254;28;19931;-71
2021/05/24 10:40:46;;;;;;;;;;;21.10;41.50;;;;;;4923725;28;19975;-69
2021/05/24 10:43:15;;;;;;;;;;;21.80;39.60;;;;;;4926116;28;20342;-72
2021/05/24 10:45:40;;;;;;;;;;;21.90;37.70;;;;;;4925841;28;19930;-70
2021/05/24 10:48:06;;;;;;;;;;;22.50;40.00;;;;;;4922267;29;19923;-71
2021/05/24 10:50:33;;;;;;;;;;;22.00;36.50;;;;;;4918425;29;19915;-69
2021/05/24 10:53:19;;;;;;;;;;;21.80;38.40;;;;;;4923290;29;19923;-71
2021/05/24 10:55:49;;;;;;;;;;;21.30;38.30;;;;;;4907027;29;20006;-70
2021/05/24 10:58:16;;;;;;;;;;;21.40;37.00;;;;;;4922294;29;19919;-70
2021/05/24 11:01:01;;;;;;;;;;;21.30;38.50;;;;;;4923587;28;19941;-69
2021/05/24 11:03:27;;;;;;;;;;;21.80;37.50;;;;;;4922909;28;19919;-71
2021/05/24 11:06:06;;;;;;;;;;;21.60;38.10;;;;;;4928370;28;19942;-69
2021/05/24 11:08:34;;;;;;;;;;;20.90;38.60;;;;;;4921055;29;20422;-70
2021/05/24 11:11:15;;;;;;;;;;;21.20;36.50;;;;;;4920548;29;20001;-70
2021/05/24 11:13:50;;;;;;;;;;;21.50;35.10;;;;;;4906576;29;20010;-69
2021/05/24 11:16:16;;;;;;;;;;;21.40;35.60;;;;;;4924473;29;19981;-70
2021/05/24 11:18:42;;;;;;;;;;;21.00;36.10;;;;;;4921354;29;20022;-71
2021/05/24 11:21:13;;;;;;;;;;;20.50;37.70;;;;;;4923053;28;19962;-70
2021/05/24 11:24:05;;;;;;;;;;;20.50;37.80;;;;;;4921244;28;19914;-69
2021/05/24 11:26:37;;;;;;;;;;;21.20;37.50;;;;;;4915625;28;20410;-71
2021/05/24 11:29:16;;;;;;;;;;;21.10;37.40;;;;;;4918144;28;19959;-70
2021/05/24 11:31:49;;;;;;;;;;;20.90;34.50;;;;;;4928553;28;20014;-70
2021/05/24 11:34:26;;;;;;;;;;;21.70;34.40;;;;;;4927623;29;19923;-70
2021/05/24 11:36:52;;;;;;;;;;;22.00;33.10;;;;;;4920564;28;19941;-71
2021/05/24 11:39:28;;;;;;;;;;;21.60;33.50;;;;;;4920926;29;19919;-70
2021/05/24 11:42:01;;;;;;;;;;;21.50;36.00;;;;;;4919421;28;20026;-70
2021/05/24 11:44:38;;;;;;;;;;;20.70;35.50;;;;;;4923450;28;19919;-71
2021/05/24 11:47:06;;;;;;;;;;;20.90;35.50;;;;;;4922562;28;19919;-71
2021/05/24 11:49:34;;;;;;;;;;;21.60;35.80;;;;;;4917769;28;19919;-71
2021/05/24 11:51:59;;;;;;;;;;;22.80;37.00;;;;;;4921369;29;19915;-71
2021/05/24 11:54:26;;;;;;;;;;;21.80;34.70;;;;;;4925216;28;20336;-72
2021/05/24 11:56:54;;;;;;;;;;;21.30;35.70;;;;;;4921062;28;19919;-70
2021/05/24 11:59:21;;;;;;;;;;;21.70;36.40;;;;;;4921695;28;19963;-71
2021/05/24 12:01:48;;;;;;;;;;;21.60;35.10;;;;;;4906344;28;19939;-71
2021/05/24 12:04:17;;;;;;;;;;;21.10;36.90;;;;;;4933803;28;20264;-70
2021/05/24 12:06:44;;;;;;;;;;;20.60;35.30;;;;;;4926188;28;19923;-71
2021/05/24 12:09:11;;;;;;;;;;;20.10;37.50;;;;;;4949595;28;20028;-70
2021/05/24 12:11:51;;;;;;;;;;;21.90;35.60;;;;;;4925172;28;19922;-70
2021/05/24 12:14:17;;;;;;;;;;;22.20;33.50;;;;;;4928569;28;20386;-68
2021/05/24 12:16:42;;;;;;;;;;;22.40;35.20;;;;;;4924565;28;19923;-67
2021/05/24 12:19:08;;;;;;;;;;;23.50;34.80;;;;;;4929464;28;19926;-70
2021/05/24 12:21:35;;;;;;;;;;;22.60;33.80;;;;;;4920827;28;19945;-69
2021/05/24 12:24:01;;;;;;;;;;;21.80;35.90;;;;;;4925503;28;20352;-68
2021/05/24 12:26:27;;;;;;;;;;;21.00;37.70;;;;;;4923344;28;20336;-69
2021/05/24 12:28:53;;;;;;;;;;;22.00;35.80;;;;;;4932498;28;19915;-69
2021/05/24 12:31:19;;;;;;;;;;;21.90;35.20;;;;;;4923753;28;20528;-70
2021/05/24 12:33:46;;;;;;;;;;;21.50;36.50;;;;;;4928503;28;20006;-68
2021/05/24 12:36:14;;;;;;;;;;;22.50;35.50;;;;;;4925210;28;20056;-69
2021/05/24 12:38:47;;;;;;;;;;;21.80;35.60;;;;;;4936069;28;19918;-67
2021/05/24 12:41:14;;;;;;;;;;;21.60;36.30;;;;;;4923903;28;19927;-70
2021/05/24 12:43:48;;;;;;;;;;;21.30;36.20;;;;;;4935765;28;19922;-68
2021/05/24 12:46:14;;;;;;;;;;;21.70;36.10;;;;;;4923281;28;20037;-69
2021/05/24 12:48:40;;;;;;;;;;;22.90;35.30;;;;;;4939225;28;19978;-68
2021/05/24 12:51:13;;;;;;;;;;;22.80;33.00;;;;;;4925009;28;20267;-70
2021/05/24 12:53:38;;;;;;;;;;;21.60;33.30;;;;;;4923449;28;19938;-70
2021/05/24 12:56:05;;;;;;;;;;;21.50;35.20;;;;;;4926768;28;20316;-68
2021/05/24 12:58:35;;;;;;;;;;;21.60;35.30;;;;;;4931034;28;19936;-69
2021/05/24 13:01:02;;;;;;;;;;;21.40;36.10;;;;;;4932911;28;20257;-68
2021/05/24 13:03:39;;;;;;;;;;;21.40;36.20;;;;;;4946594;28;19922;-69
2021/05/24 13:06:06;;;;;;;;;;;21.30;36.00;;;;;;4930455;28;20009;-70
2021/05/24 13:08:31;;;;;;;;;;;21.00;36.00;;;;;;4924106;28;19918;-69
2021/05/24 13:11:01;;;;;;;;;;;21.10;36.30;;;;;;4916871;28;20065;-69
2021/05/24 13:13:27;;;;;;;;;;;21.20;37.70;;;;;;4928369;28;20319;-68
2021/05/24 13:15:58;;;;;;;;;;;21.50;37.60;;;;;;4931574;28;19989;-69
2021/05/24 13:28:53;;;;;;;;;;;20.90;36.10;;;;;;4929232;28;19922;-68
2021/05/24 13:31:26;;;;;;;;;;;20.90;36.90;;;;;;4918124;28;19923;-70
2021/05/24 13:33:52;;;;;;;;;;;21.20;36.60;;;;;;4920707;28;19915;-68
2021/05/24 13:36:20;;;;;;;;;;;21.60;36.60;;;;;;4927200;28;19976;-69
2021/05/24 13:39:03;;;;;;;;;;;21.80;34.80;;;;;;4922362;28;19971;-68
2021/05/24 13:41:29;;;;;;;;;;;22.60;35.70;;;;;;4926239;28;19922;-70
2021/05/24 13:43:56;;;;;;;;;;;24.70;35.30;;;;;;4925004;28;19930;-70
2021/05/24 13:46:21;;;;;;;;;;;24.40;34.50;;;;;;4928606;28;19968;-68
2021/05/24 13:48:47;;;;;;;;;;;24.90;33.00;;;;;;4927117;28;19930;-69
2021/05/24 13:51:13;;;;;;;;;;;25.20;31.70;;;;;;4939867;28;19934;-69
2021/05/24 13:53:38;;;;;;;;;;;24.10;33.60;;;;;;4922677;28;19977;-69
2021/05/24 13:56:04;;;;;;;;;;;23.50;36.80;;;;;;4924522;28;19976;-70
2021/05/24 13:58:30;;;;;;;;;;;22.50;35.20;;;;;;4939158;28;20026;-69
2021/05/24 14:00:56;;;;;;;;;;;21.90;36.00;;;;;;4927862;28;20244;-68
2021/05/24 14:03:21;;;;;;;;;;;21.50;36.60;;;;;;4919563;28;20404;-68
2021/05/24 14:05:47;;;;;;;;;;;21.40;37.10;;;;;;4929669;28;20405;-71
2021/05/24 14:08:12;;;;;;;;;;;21.30;37.70;;;;;;4938950;28;19926;-68
2021/05/24 14:10:39;;;;;;;;;;;21.00;37.40;;;;;;4933567;28;19915;-68
2021/05/24 14:13:04;;;;;;;;;;;21.10;39.30;;;;;;4923019;28;19995;-69
2021/05/24 14:15:30;;;;;;;;;;;20.70;38.80;;;;;;4925538;28;20074;-69
2021/05/24 14:17:57;;;;;;;;;;;20.80;38.10;;;;;;4933625;28;19918;-70
2021/05/24 14:20:22;;;;;;;;;;;21.80;37.90;;;;;;4930560;28;20308;-68
2021/05/24 14:22:48;;;;;;;;;;;21.40;37.20;;;;;;4921254;28;19945;-69
2021/05/24 14:25:13;;;;;;;;;;;21.30;38.10;;;;;;4927174;28;19962;-70
2021/05/24 14:27:39;;;;;;;;;;;21.10;37.50;;;;;;4930952;28;19999;-69
2021/05/24 14:30:05;;;;;;;;;;;20.90;37.90;;;;;;4925287;28;19919;-69